Waterdown, Canada
Current Conditions -  °F | °C
As of 8:00 AM on Friday 31 Oct 2014 (Local Time) from CYHM Reporting Station
Rain Showers Rain Showers  
Wind Chill: 35°   Ceiling: 2800
Heat Index: 39°   Visibility: 8mi
Dew Point: 37°   Wind: 6mph
Humidity: 93%   Direction: 120°ESE
Pressure: 29.94"   Gusts: NA
Location:  43.33°N, 79.88°W
Report Text: CYHM 311200Z 12005KT 8SM -SHRA OVC028 04/03 A2994 RMK SC8 SLP146
Loading
Personal Weather Stations






























Interactive Weather Map
Tropical Storm Tracking
New forecast layout! Learn more

10-Day Weather Forecast

Advertisements
Track Severe Weather on mobile